sensor_id;sensor_type;location;lat;lon;timestamp;pressure;altitude;pressure_sealevel;temperature;humidity
8320;BME280;4197;42.130;24.746;2024-01-30T00:01:54;101702.16;;;0.22;79.92
8320;BME280;4197;42.130;24.746;2024-01-30T00:04:22;101711.34;;;0.26;80.19
8320;BME280;4197;42.130;24.746;2024-01-30T00:06:51;101710.53;;;0.26;79.92
8320;BME280;4197;42.130;24.746;2024-01-30T00:09:20;101706.78;;;0.15;80.42
8320;BME280;4197;42.130;24.746;2024-01-30T00:11:49;101717.78;;;0.07;80.64
8320;BME280;4197;42.130;24.746;2024-01-30T00:14:17;101708.03;;;0.01;80.79
8320;BME280;4197;42.130;24.746;2024-01-30T00:16:46;101708.50;;;-0.03;81.94
8320;BME280;4197;42.130;24.746;2024-01-30T00:19:16;101710.13;;;-0.02;82.21
8320;BME280;4197;42.130;24.746;2024-01-30T00:21:44;101714.06;;;0.08;82.54
8320;BME280;4197;42.130;24.746;2024-01-30T00:24:13;101709.13;;;0.11;82.52
8320;BME280;4197;42.130;24.746;2024-01-30T00:26:41;101710.72;;;0.12;82.44
8320;BME280;4197;42.130;24.746;2024-01-30T00:29:09;101707.81;;;0.14;82.63
8320;BME280;4197;42.130;24.746;2024-01-30T00:31:38;101710.28;;;0.15;81.54
8320;BME280;4197;42.130;24.746;2024-01-30T00:34:08;101705.50;;;0.06;81.67
8320;BME280;4197;42.130;24.746;2024-01-30T00:36:37;101706.84;;;-0.04;81.84
8320;BME280;4197;42.130;24.746;2024-01-30T00:39:06;101703.25;;;-0.09;82.20
8320;BME280;4197;42.130;24.746;2024-01-30T00:41:36;101708.88;;;-0.17;82.48
8320;BME280;4197;42.130;24.746;2024-01-30T00:44:04;101713.28;;;-0.23;83.12
8320;BME280;4197;42.130;24.746;2024-01-30T00:46:33;101715.59;;;-0.27;84.08
8320;BME280;4197;42.130;24.746;2024-01-30T00:49:01;101716.44;;;-0.14;84.60
8320;BME280;4197;42.130;24.746;2024-01-30T00:51:29;101718.25;;;0.04;83.56
8320;BME280;4197;42.130;24.746;2024-01-30T00:53:59;101722.53;;;0.05;82.69
8320;BME280;4197;42.130;24.746;2024-01-30T00:56:28;101715.44;;;-0.02;83.07
8320;BME280;4197;42.130;24.746;2024-01-30T00:58:56;101708.72;;;-0.04;82.67
8320;BME280;4197;42.130;24.746;2024-01-30T01:01:24;101700.59;;;0.03;82.76
8320;BME280;4197;42.130;24.746;2024-01-30T01:03:53;101709.19;;;0.05;82.90
8320;BME280;4197;42.130;24.746;2024-01-30T01:06:21;101704.44;;;-0.05;82.72
8320;BME280;4197;42.130;24.746;2024-01-30T01:08:49;101706.59;;;-0.14;82.72
8320;BME280;4197;42.130;24.746;2024-01-30T01:11:19;101709.94;;;-0.18;83.78
8320;BME280;4197;42.130;24.746;2024-01-30T01:13:47;101708.75;;;-0.23;83.81
8320;BME280;4197;42.130;24.746;2024-01-30T01:16:16;101705.28;;;-0.23;84.12
8320;BME280;4197;42.130;24.746;2024-01-30T01:18:44;101705.53;;;-0.25;84.31
8320;BME280;4197;42.130;24.746;2024-01-30T01:21:13;101706.78;;;-0.27;84.71
8320;BME280;4197;42.130;24.746;2024-01-30T01:23:41;101700.41;;;-0.26;85.02
8320;BME280;4197;42.130;24.746;2024-01-30T01:26:09;101698.53;;;-0.26;85.38
8320;BME280;4197;42.130;24.746;2024-01-30T01:28:41;101689.75;;;-0.26;85.17
8320;BME280;4197;42.130;24.746;2024-01-30T01:31:09;101679.31;;;-0.28;85.17
8320;BME280;4197;42.130;24.746;2024-01-30T01:33:37;101685.31;;;-0.32;85.69
8320;BME280;4197;42.130;24.746;2024-01-30T01:36:06;101687.84;;;-0.37;85.55
8320;BME280;4197;42.130;24.746;2024-01-30T01:38:34;101680.97;;;-0.45;85.72
8320;BME280;4197;42.130;24.746;2024-01-30T01:41:03;101684.09;;;-0.48;85.94
8320;BME280;4197;42.130;24.746;2024-01-30T01:43:31;101689.66;;;-0.50;86.62
8320;BME280;4197;42.130;24.746;2024-01-30T01:46:01;101685.03;;;-0.42;88.04
8320;BME280;4197;42.130;24.746;2024-01-30T01:48:30;101685.13;;;-0.49;88.67
8320;BME280;4197;42.130;24.746;2024-01-30T01:50:59;101692.75;;;-0.53;88.79
8320;BME280;4197;42.130;24.746;2024-01-30T01:53:27;101688.25;;;-0.52;89.69
8320;BME280;4197;42.130;24.746;2024-01-30T01:55:56;101683.06;;;-0.47;89.18
8320;BME280;4197;42.130;24.746;2024-01-30T01:58:27;101689.09;;;-0.40;87.92
8320;BME280;4197;42.130;24.746;2024-01-30T02:00:57;101692.44;;;-0.45;87.77
8320;BME280;4197;42.130;24.746;2024-01-30T02:03:27;101697.50;;;-0.55;88.65
8320;BME280;4197;42.130;24.746;2024-01-30T02:05:56;101689.97;;;-0.58;88.38
8320;BME280;4197;42.130;24.746;2024-01-30T02:08:25;101693.75;;;-0.65;89.47
8320;BME280;4197;42.130;24.746;2024-01-30T02:10:54;101692.19;;;-0.73;89.91
8320;BME280;4197;42.130;24.746;2024-01-30T02:13:23;101686.41;;;-0.70;90.39
8320;BME280;4197;42.130;24.746;2024-01-30T02:15:51;101698.31;;;-0.73;90.22
8320;BME280;4197;42.130;24.746;2024-01-30T02:18:20;101696.91;;;-0.75;90.47
8320;BME280;4197;42.130;24.746;2024-01-30T02:20:50;101693.00;;;-0.73;91.02
8320;BME280;4197;42.130;24.746;2024-01-30T02:23:24;101698.56;;;-0.74;91.44
8320;BME280;4197;42.130;24.746;2024-01-30T02:25:52;101692.19;;;-0.73;91.75
8320;BME280;4197;42.130;24.746;2024-01-30T02:28:21;101701.22;;;-0.74;91.47
8320;BME280;4197;42.130;24.746;2024-01-30T02:30:49;101710.53;;;-0.83;92.16
8320;BME280;4197;42.130;24.746;2024-01-30T02:33:17;101706.69;;;-0.87;92.58
8320;BME280;4197;42.130;24.746;2024-01-30T02:35:46;101710.31;;;-0.82;93.60
8320;BME280;4197;42.130;24.746;2024-01-30T02:38:15;101702.63;;;-0.90;94.41
8320;BME280;4197;42.130;24.746;2024-01-30T02:40:45;101712.91;;;-0.94;95.01
8320;BME280;4197;42.130;24.746;2024-01-30T02:43:13;101717.94;;;-1.04;96.32
8320;BME280;4197;42.130;24.746;2024-01-30T02:45:42;101716.53;;;-1.06;97.75
8320;BME280;4197;42.130;24.746;2024-01-30T02:48:10;101714.78;;;-1.19;99.12
8320;BME280;4197;42.130;24.746;2024-01-30T02:50:38;101705.44;;;-1.22;100.00
8320;BME280;4197;42.130;24.746;2024-01-30T02:53:07;101715.69;;;-1.25;100.00
8320;BME280;4197;42.130;24.746;2024-01-30T02:55:35;101712.84;;;-1.30;100.00
8320;BME280;4197;42.130;24.746;2024-01-30T02:58:05;101720.84;;;-1.30;100.00
8320;BME280;4197;42.130;24.746;2024-01-30T03:00:34;101718.19;;;-1.30;100.00
8320;BME280;4197;42.130;24.746;2024-01-30T03:03:03;101721.88;;;-1.31;100.00
8320;BME280;4197;42.130;24.746;2024-01-30T03:05:31;101719.03;;;-1.30;100.00
8320;BME280;4197;42.130;24.746;2024-01-30T03:08:00;101718.13;;;-1.24;100.00
8320;BME280;4197;42.130;24.746;2024-01-30T03:10:28;101725.44;;;-1.19;100.00
8320;BME280;4197;42.130;24.746;2024-01-30T03:12:57;101724.00;;;-1.15;100.00
8320;BME280;4197;42.130;24.746;2024-01-30T03:15:26;101712.75;;;-1.17;100.00
8320;BME280;4197;42.130;24.746;2024-01-30T03:17:55;101715.19;;;-1.16;100.00
8320;BME280;4197;42.130;24.746;2024-01-30T03:20:23;101721.31;;;-1.15;100.00
8320;BME280;4197;42.130;24.746;2024-01-30T03:22:53;101717.63;;;-1.14;100.00
8320;BME280;4197;42.130;24.746;2024-01-30T03:25:21;101711.28;;;-1.13;100.00
8320;BME280;4197;42.130;24.746;2024-01-30T03:27:50;101710.84;;;-1.10;100.00
8320;BME280;4197;42.130;24.746;2024-01-30T03:30:18;101710.16;;;-1.05;100.00
8320;BME280;4197;42.130;24.746;2024-01-30T03:32:48;101709.13;;;-1.04;100.00
8320;BME280;4197;42.130;24.746;2024-01-30T03:35:18;101702.91;;;-0.98;100.00
8320;BME280;4197;42.130;24.746;2024-01-30T03:37:46;101718.69;;;-0.97;100.00
8320;BME280;4197;42.130;24.746;2024-01-30T03:40:15;101714.97;;;-0.96;100.00
8320;BME280;4197;42.130;24.746;2024-01-30T03:42:43;101723.94;;;-0.90;100.00
8320;BME280;4197;42.130;24.746;2024-01-30T03:45:12;101710.63;;;-0.90;100.00
8320;BME280;4197;42.130;24.746;2024-01-30T03:47:43;101710.16;;;-0.87;100.00
8320;BME280;4197;42.130;24.746;2024-01-30T03:50:13;101709.81;;;-0.91;100.00
8320;BME280;4197;42.130;24.746;2024-01-30T03:52:42;101707.56;;;-0.75;100.00
8320;BME280;4197;42.130;24.746;2024-01-30T03:55:10;101705.50;;;-0.92;100.00
8320;BME280;4197;42.130;24.746;2024-01-30T03:57:39;101709.44;;;-0.94;100.00
8320;BME280;4197;42.130;24.746;2024-01-30T04:00:08;101708.84;;;-0.78;100.00
8320;BME280;4197;42.130;24.746;2024-01-30T04:02:37;101712.78;;;-0.80;100.00
8320;BME280;4197;42.130;24.746;2024-01-30T04:05:06;101715.28;;;-0.85;100.00
8320;BME280;4197;42.130;24.746;2024-01-30T04:07:35;101715.28;;;-0.85;100.00
8320;BME280;4197;42.130;24.746;2024-01-30T04:10:05;101718.69;;;-0.97;100.00
8320;BME280;4197;42.130;24.746;2024-01-30T04:12:34;101714.91;;;-1.07;100.00
8320;BME280;4197;42.130;24.746;2024-01-30T04:15:02;101716.38;;;-1.12;100.00
8320;BME280;4197;42.130;24.746;2024-01-30T04:17:31;101721.78;;;-1.18;100.00
8320;BME280;4197;42.130;24.746;2024-01-30T04:19:59;101715.91;;;-1.08;100.00
8320;BME280;4197;42.130;24.746;2024-01-30T04:22:28;101710.19;;;-1.30;100.00
8320;BME280;4197;42.130;24.746;2024-01-30T04:24:58;101708.94;;;-1.28;100.00
8320;BME280;4197;42.130;24.746;2024-01-30T04:27:26;101709.34;;;-1.24;100.00
8320;BME280;4197;42.130;24.746;2024-01-30T04:29:54;101712.91;;;-1.12;100.00
8320;BME280;4197;42.130;24.746;2024-01-30T04:32:23;101713.94;;;-1.13;100.00
8320;BME280;4197;42.130;24.746;2024-01-30T04:34:51;101725.59;;;-1.14;100.00
8320;BME280;4197;42.130;24.746;2024-01-30T04:37:19;101729.53;;;-1.17;100.00
8320;BME280;4197;42.130;24.746;2024-01-30T04:39:48;101723.34;;;-1.10;100.00
8320;BME280;4197;42.130;24.746;2024-01-30T04:42:18;101724.81;;;-0.96;100.00
8320;BME280;4197;42.130;24.746;2024-01-30T04:44:46;101728.31;;;-0.96;100.00
8320;BME280;4197;42.130;24.746;2024-01-30T04:47:14;101733.25;;;-0.99;100.00
8320;BME280;4197;42.130;24.746;2024-01-30T04:49:43;101736.50;;;-0.97;100.00
8320;BME280;4197;42.130;24.746;2024-01-30T04:52:12;101749.00;;;-0.98;100.00
8320;BME280;4197;42.130;24.746;2024-01-30T04:54:40;101744.56;;;-1.04;100.00
8320;BME280;4197;42.130;24.746;2024-01-30T04:57:09;101750.41;;;-1.14;100.00
8320;BME280;4197;42.130;24.746;2024-01-30T04:59:40;101744.31;;;-1.21;100.00
8320;BME280;4197;42.130;24.746;2024-01-30T05:02:08;101742.09;;;-1.05;100.00
8320;BME280;4197;42.130;24.746;2024-01-30T05:04:37;101734.00;;;-0.92;100.00
8320;BME280;4197;42.130;24.746;2024-01-30T05:07:05;101739.47;;;-0.87;100.00
8320;BME280;4197;42.130;24.746;2024-01-30T05:09:34;101747.53;;;-0.94;100.00
8320;BME280;4197;42.130;24.746;2024-01-30T05:12:02;101752.13;;;-1.01;100.00
8320;BME280;4197;42.130;24.746;2024-01-30T05:14:31;101748.72;;;-1.08;100.00
8320;BME280;4197;42.130;24.746;2024-01-30T05:17:01;101747.75;;;-0.95;100.00
8320;BME280;4197;42.130;24.746;2024-01-30T05:19:30;101748.06;;;-0.85;100.00
8320;BME280;4197;42.130;24.746;2024-01-30T05:21:58;101746.81;;;-0.82;100.00
8320;BME280;4197;42.130;24.746;2024-01-30T05:24:26;101750.88;;;-0.80;100.00
8320;BME280;4197;42.130;24.746;2024-01-30T05:26:55;101756.72;;;-0.71;100.00
8320;BME280;4197;42.130;24.746;2024-01-30T05:29:24;101754.63;;;-0.51;100.00
8320;BME280;4197;42.130;24.746;2024-01-30T05:31:52;101763.03;;;-0.65;100.00
8320;BME280;4197;42.130;24.746;2024-01-30T05:34:22;101748.72;;;-0.53;99.37
8320;BME280;4197;42.130;24.746;2024-01-30T05:36:50;101741.56;;;-0.52;99.58
8320;BME280;4197;42.130;24.746;2024-01-30T05:39:19;101746.78;;;-0.46;99.52
8320;BME280;4197;42.130;24.746;2024-01-30T05:41:47;101744.28;;;-0.40;99.58
8320;BME280;4197;42.130;24.746;2024-01-30T05:44:16;101747.09;;;-0.35;98.48
8320;BME280;4197;42.130;24.746;2024-01-30T05:46:44;101748.94;;;-0.36;98.59
8320;BME280;4197;42.130;24.746;2024-01-30T05:49:12;101749.75;;;-0.35;98.16
8320;BME280;4197;42.130;24.746;2024-01-30T05:51:42;101748.09;;;-0.36;98.65
8320;BME280;4197;42.130;24.746;2024-01-30T05:54:11;101746.03;;;-0.34;98.20
8320;BME280;4197;42.130;24.746;2024-01-30T05:56:43;101747.91;;;-0.35;97.80
8320;BME280;4197;42.130;24.746;2024-01-30T05:59:12;101750.88;;;-0.43;99.00
8320;BME280;4197;42.130;24.746;2024-01-30T06:01:45;101742.06;;;-0.43;99.25
8320;BME280;4197;42.130;24.746;2024-01-30T06:04:15;101748.66;;;-0.46;99.47
8320;BME280;4197;42.130;24.746;2024-01-30T06:06:44;101749.59;;;-0.40;99.31
8320;BME280;4197;42.130;24.746;2024-01-30T06:09:13;101746.84;;;-0.34;99.11
8320;BME280;4197;42.130;24.746;2024-01-30T06:11:42;101755.13;;;-0.24;98.29
8320;BME280;4197;42.130;24.746;2024-01-30T06:14:10;101749.34;;;-0.20;97.01
8320;BME280;4197;42.130;24.746;2024-01-30T06:16:38;101759.19;;;-0.21;96.31
8320;BME280;4197;42.130;24.746;2024-01-30T06:19:08;101756.13;;;-0.06;95.45
8320;BME280;4197;42.130;24.746;2024-01-30T06:21:37;101759.38;;;-0.04;95.48
8320;BME280;4197;42.130;24.746;2024-01-30T06:24:07;101761.06;;;0.09;94.27
8320;BME280;4197;42.130;24.746;2024-01-30T06:26:36;101757.56;;;0.08;94.09
8320;BME280;4197;42.130;24.746;2024-01-30T06:29:04;101753.13;;;0.02;93.99
8320;BME280;4197;42.130;24.746;2024-01-30T06:31:32;101757.81;;;0.07;93.74
8320;BME280;4197;42.130;24.746;2024-01-30T06:34:01;101764.44;;;0.16;93.23
8320;BME280;4197;42.130;24.746;2024-01-30T06:36:29;101762.16;;;0.19;93.00
8320;BME280;4197;42.130;24.746;2024-01-30T06:38:57;101762.38;;;0.18;93.73
8320;BME280;4197;42.130;24.746;2024-01-30T06:41:27;101760.38;;;0.13;94.51
8320;BME280;4197;42.130;24.746;2024-01-30T06:43:56;101761.19;;;0.14;95.59
8320;BME280;4197;42.130;24.746;2024-01-30T06:46:24;101770.97;;;0.20;94.42
8320;BME280;4197;42.130;24.746;2024-01-30T06:48:54;101768.75;;;0.17;94.89
8320;BME280;4197;42.130;24.746;2024-01-30T06:51:22;101761.09;;;0.20;94.62
8320;BME280;4197;42.130;24.746;2024-01-30T06:53:51;101757.97;;;0.24;94.88
8320;BME280;4197;42.130;24.746;2024-01-30T06:56:21;101759.03;;;0.22;94.76
8320;BME280;4197;42.130;24.746;2024-01-30T06:58:51;101756.91;;;0.25;95.53
8320;BME280;4197;42.130;24.746;2024-01-30T07:01:20;101767.13;;;0.28;95.31
8320;BME280;4197;42.130;24.746;2024-01-30T07:03:49;101765.19;;;0.35;94.76
8320;BME280;4197;42.130;24.746;2024-01-30T07:06:17;101770.75;;;0.33;94.25
8320;BME280;4197;42.130;24.746;2024-01-30T07:08:45;101773.31;;;0.28;94.93
8320;BME280;4197;42.130;24.746;2024-01-30T07:11:18;101765.88;;;0.30;95.93
8320;BME280;4197;42.130;24.746;2024-01-30T07:13:48;101772.16;;;0.36;95.02
8320;BME280;4197;42.130;24.746;2024-01-30T07:16:18;101767.06;;;0.34;95.23
8320;BME280;4197;42.130;24.746;2024-01-30T07:18:47;101771.13;;;0.37;94.67
8320;BME280;4197;42.130;24.746;2024-01-30T07:21:15;101768.59;;;0.42;93.71
8320;BME280;4197;42.130;24.746;2024-01-30T07:23:44;101767.91;;;0.58;92.12
8320;BME280;4197;42.130;24.746;2024-01-30T07:26:12;101773.59;;;0.62;91.40
8320;BME280;4197;42.130;24.746;2024-01-30T07:28:41;101775.09;;;0.58;91.62
8320;BME280;4197;42.130;24.746;2024-01-30T07:31:11;101775.22;;;0.63;91.90
8320;BME280;4197;42.130;24.746;2024-01-30T07:33:40;101772.09;;;0.66;92.56
8320;BME280;4197;42.130;24.746;2024-01-30T07:36:09;101773.25;;;0.70;91.65
8320;BME280;4197;42.130;24.746;2024-01-30T07:38:37;101781.88;;;0.72;91.60
8320;BME280;4197;42.130;24.746;2024-01-30T07:41:06;101779.19;;;0.72;90.96
8320;BME280;4197;42.130;24.746;2024-01-30T07:43:34;101778.28;;;0.90;88.98
8320;BME280;4197;42.130;24.746;2024-01-30T07:46:03;101784.66;;;1.01;86.79
8320;BME280;4197;42.130;24.746;2024-01-30T07:48:33;101773.03;;;1.07;84.88
8320;BME280;4197;42.130;24.746;2024-01-30T07:51:03;101780.59;;;1.10;85.22
8320;BME280;4197;42.130;24.746;2024-01-30T07:53:32;101784.19;;;1.16;84.57
8320;BME280;4197;42.130;24.746;2024-01-30T07:56:00;101775.44;;;1.32;81.82
8320;BME280;4197;42.130;24.746;2024-01-30T07:58:29;101775.22;;;1.33;80.44
8320;BME280;4197;42.130;24.746;2024-01-30T08:00:57;101784.28;;;1.32;80.44
8320;BME280;4197;42.130;24.746;2024-01-30T08:03:27;101780.56;;;1.33;79.86
8320;BME280;4197;42.130;24.746;2024-01-30T08:05:56;101773.13;;;1.24;80.55
8320;BME280;4197;42.130;24.746;2024-01-30T08:08:25;101769.78;;;1.28;80.14
8320;BME280;4197;42.130;24.746;2024-01-30T08:10:55;101770.56;;;1.41;78.64
8320;BME280;4197;42.130;24.746;2024-01-30T08:13:23;101784.38;;;1.49;77.17
8320;BME280;4197;42.130;24.746;2024-01-30T08:15:51;101778.66;;;1.58;76.06
8320;BME280;4197;42.130;24.746;2024-01-30T08:18:20;101776.34;;;1.61;75.76
8320;BME280;4197;42.130;24.746;2024-01-30T08:20:48;101772.13;;;1.65;74.87
8320;BME280;4197;42.130;24.746;2024-01-30T08:23:17;101774.06;;;1.82;74.21
8320;BME280;4197;42.130;24.746;2024-01-30T08:25:46;101768.09;;;1.91;73.01
8320;BME280;4197;42.130;24.746;2024-01-30T08:28:15;101772.22;;;1.99;73.17
8320;BME280;4197;42.130;24.746;2024-01-30T08:30:46;101772.84;;;2.18;71.16
8320;BME280;4197;42.130;24.746;2024-01-30T08:33:15;101777.31;;;2.12;70.72
8320;BME280;4197;42.130;24.746;2024-01-30T08:35:44;101768.47;;;2.12;71.17
8320;BME280;4197;42.130;24.746;2024-01-30T08:38:12;101770.34;;;2.28;71.95
8320;BME280;4197;42.130;24.746;2024-01-30T08:40:40;101775.66;;;2.40;70.48
8320;BME280;4197;42.130;24.746;2024-01-30T08:43:11;101778.09;;;2.41;70.81
8320;BME280;4197;42.130;24.746;2024-01-30T08:45:39;101767.53;;;2.52;69.60
8320;BME280;4197;42.130;24.746;2024-01-30T08:48:08;101786.53;;;2.50;70.21
8320;BME280;4197;42.130;24.746;2024-01-30T08:50:37;101775.25;;;2.48;70.19
8320;BME280;4197;42.130;24.746;2024-01-30T08:53:05;101773.88;;;2.62;68.79
8320;BME280;4197;42.130;24.746;2024-01-30T08:55:34;101769.00;;;2.59;68.03
8320;BME280;4197;42.130;24.746;2024-01-30T08:58:03;101777.34;;;2.80;66.81
8320;BME280;4197;42.130;24.746;2024-01-30T09:00:33;101771.03;;;2.86;65.54
8320;BME280;4197;42.130;24.746;2024-01-30T09:03:02;101774.25;;;2.88;64.64
8320;BME280;4197;42.130;24.746;2024-01-30T09:05:31;101768.97;;;2.93;64.31
8320;BME280;4197;42.130;24.746;2024-01-30T09:07:59;101773.84;;;2.96;63.93
8320;BME280;4197;42.130;24.746;2024-01-30T09:10:27;101777.44;;;2.85;64.83
8320;BME280;4197;42.130;24.746;2024-01-30T09:12:56;101774.94;;;2.78;64.94
8320;BME280;4197;42.130;24.746;2024-01-30T09:15:24;101770.69;;;2.65;65.59
8320;BME280;4197;42.130;24.746;2024-01-30T09:17:54;101767.31;;;2.70;65.93
8320;BME280;4197;42.130;24.746;2024-01-30T09:20:22;101761.53;;;2.78;64.58
8320;BME280;4197;42.130;24.746;2024-01-30T09:22:51;101760.84;;;2.88;64.46
8320;BME280;4197;42.130;24.746;2024-01-30T09:25:19;101756.00;;;2.85;64.91
8320;BME280;4197;42.130;24.746;2024-01-30T09:27:47;101758.66;;;2.85;65.05
8320;BME280;4197;42.130;24.746;2024-01-30T09:30:16;101758.34;;;2.98;63.33
8320;BME280;4197;42.130;24.746;2024-01-30T09:32:45;101758.50;;;3.08;62.48
8320;BME280;4197;42.130;24.746;2024-01-30T09:35:14;101748.00;;;3.07;62.41
8320;BME280;4197;42.130;24.746;2024-01-30T09:37:46;101742.91;;;3.05;62.56
8320;BME280;4197;42.130;24.746;2024-01-30T09:40:15;101738.09;;;3.07;62.56
8320;BME280;4197;42.130;24.746;2024-01-30T09:42:46;101742.09;;;3.05;63.07
8320;BME280;4197;42.130;24.746;2024-01-30T09:45:18;101733.56;;;3.08;62.99
8320;BME280;4197;42.130;24.746;2024-01-30T09:47:46;101732.25;;;3.10;63.47
8320;BME280;4197;42.130;24.746;2024-01-30T09:50:16;101723.22;;;3.17;64.05
8320;BME280;4197;42.130;24.746;2024-01-30T09:52:46;101727.00;;;3.21;63.65
8320;BME280;4197;42.130;24.746;2024-01-30T09:55:15;101725.47;;;3.25;64.51
8320;BME280;4197;42.130;24.746;2024-01-30T09:57:43;101723.81;;;3.46;63.22
8320;BME280;4197;42.130;24.746;2024-01-30T10:00:13;101717.72;;;3.50;62.56
8320;BME280;4197;42.130;24.746;2024-01-30T10:02:41;101727.75;;;3.60;62.38
8320;BME280;4197;42.130;24.746;2024-01-30T10:05:13;101722.75;;;3.69;61.84
8320;BME280;4197;42.130;24.746;2024-01-30T10:07:52;101726.31;;;3.74;61.49
8320;BME280;4197;42.130;24.746;2024-01-30T10:10:22;101722.50;;;3.70;61.50
8320;BME280;4197;42.130;24.746;2024-01-30T10:12:51;101728.66;;;3.71;61.23
8320;BME280;4197;42.130;24.746;2024-01-30T10:15:20;101720.94;;;3.74;61.08
8320;BME280;4197;42.130;24.746;2024-01-30T10:17:49;101717.19;;;3.75;60.33
8320;BME280;4197;42.130;24.746;2024-01-30T10:20:17;101713.06;;;3.68;60.12
8320;BME280;4197;42.130;24.746;2024-01-30T10:22:46;101719.16;;;3.85;60.43
8320;BME280;4197;42.130;24.746;2024-01-30T10:25:17;101713.78;;;3.85;59.92
8320;BME280;4197;42.130;24.746;2024-01-30T10:27:46;101712.59;;;3.98;59.65
8320;BME280;4197;42.130;24.746;2024-01-30T10:30:15;101717.38;;;3.96;59.42
8320;BME280;4197;42.130;24.746;2024-01-30T10:32:44;101710.28;;;4.12;60.63
8320;BME280;4197;42.130;24.746;2024-01-30T10:35:12;101710.34;;;4.17;58.39
8320;BME280;4197;42.130;24.746;2024-01-30T10:37:43;101715.06;;;4.37;58.00
8320;BME280;4197;42.130;24.746;2024-01-30T10:40:14;101714.16;;;4.26;57.47
8320;BME280;4197;42.130;24.746;2024-01-30T10:42:45;101705.06;;;4.27;57.06
8320;BME280;4197;42.130;24.746;2024-01-30T10:45:14;101705.59;;;4.24;57.44
8320;BME280;4197;42.130;24.746;2024-01-30T10:47:45;101704.16;;;4.16;57.90
8320;BME280;4197;42.130;24.746;2024-01-30T10:50:16;101702.53;;;4.47;56.47
8320;BME280;4197;42.130;24.746;2024-01-30T10:52:46;101699.94;;;4.58;56.02
8320;BME280;4197;42.130;24.746;2024-01-30T10:55:16;101696.69;;;4.56;55.89
8320;BME280;4197;42.130;24.746;2024-01-30T10:57:47;101692.72;;;4.63;55.56
8320;BME280;4197;42.130;24.746;2024-01-30T11:00:16;101693.88;;;4.78;54.92
8320;BME280;4197;42.130;24.746;2024-01-30T11:02:47;101691.75;;;4.80;54.50
8320;BME280;4197;42.130;24.746;2024-01-30T11:05:23;101691.56;;;4.97;54.27
8320;BME280;4197;42.130;24.746;2024-01-30T11:07:59;101689.97;;;5.06;53.18
8320;BME280;4197;42.130;24.746;2024-01-30T11:10:27;101686.47;;;5.00;53.43
8320;BME280;4197;42.130;24.746;2024-01-30T11:12:58;101686.72;;;4.99;53.41
8320;BME280;4197;42.130;24.746;2024-01-30T11:15:28;101695.69;;;5.20;52.59
8320;BME280;4197;42.130;24.746;2024-01-30T11:17:58;101679.84;;;5.28;51.63
8320;BME280;4197;42.130;24.746;2024-01-30T11:20:27;101674.25;;;4.77;52.24
8320;BME280;4197;42.130;24.746;2024-01-30T11:22:59;101676.06;;;4.66;53.25
8320;BME280;4197;42.130;24.746;2024-01-30T11:25:31;101672.47;;;4.98;53.71
8320;BME280;4197;42.130;24.746;2024-01-30T11:28:02;101672.28;;;5.20;52.39
8320;BME280;4197;42.130;24.746;2024-01-30T11:30:32;101667.81;;;5.46;52.09
8320;BME280;4197;42.130;24.746;2024-01-30T11:33:05;101661.91;;;5.49;51.79
8320;BME280;4197;42.130;24.746;2024-01-30T11:35:36;101655.16;;;5.47;51.43
8320;BME280;4197;42.130;24.746;2024-01-30T11:38:07;101655.41;;;5.35;51.84
8320;BME280;4197;42.130;24.746;2024-01-30T11:40:37;101647.56;;;5.23;51.58
8320;BME280;4197;42.130;24.746;2024-01-30T11:43:09;101642.44;;;5.22;52.38
8320;BME280;4197;42.130;24.746;2024-01-30T11:45:38;101650.25;;;5.28;51.71
8320;BME280;4197;42.130;24.746;2024-01-30T11:48:07;101640.03;;;5.25;51.79
8320;BME280;4197;42.130;24.746;2024-01-30T11:50:42;101638.13;;;5.21;52.56
8320;BME280;4197;42.130;24.746;2024-01-30T11:53:11;101632.94;;;5.04;51.09
8320;BME280;4197;42.130;24.746;2024-01-30T11:55:40;101635.41;;;5.05;50.63
8320;BME280;4197;42.130;24.746;2024-01-30T11:58:10;101628.69;;;5.18;51.00
8320;BME280;4197;42.130;24.746;2024-01-30T12:00:38;101626.53;;;5.15;51.17
8320;BME280;4197;42.130;24.746;2024-01-30T12:03:06;101619.53;;;5.09;50.99
8320;BME280;4197;42.130;24.746;2024-01-30T12:05:35;101619.53;;;5.09;50.97
8320;BME280;4197;42.130;24.746;2024-01-30T12:08:15;101610.69;;;5.13;51.04
8320;BME280;4197;42.130;24.746;2024-01-30T12:10:43;101608.25;;;5.12;50.60
8320;BME280;4197;42.130;24.746;2024-01-30T12:13:14;101608.81;;;5.19;50.47
8320;BME280;4197;42.130;24.746;2024-01-30T12:15:42;101595.59;;;5.12;50.60
8320;BME280;4197;42.130;24.746;2024-01-30T12:18:11;101601.50;;;5.09;50.84
8320;BME280;4197;42.130;24.746;2024-01-30T12:20:39;101593.97;;;5.06;50.84
8320;BME280;4197;42.130;24.746;2024-01-30T12:23:07;101583.97;;;4.86;51.11
8320;BME280;4197;42.130;24.746;2024-01-30T12:25:36;101584.50;;;4.88;50.98
8320;BME280;4197;42.130;24.746;2024-01-30T12:28:05;101577.22;;;4.84;51.56
8320;BME280;4197;42.130;24.746;2024-01-30T12:30:35;101574.84;;;4.98;51.44
8320;BME280;4197;42.130;24.746;2024-01-30T12:33:04;101571.66;;;5.06;51.39
8320;BME280;4197;42.130;24.746;2024-01-30T12:35:35;101566.03;;;5.07;50.96
8320;BME280;4197;42.130;24.746;2024-01-30T12:38:14;101571.41;;;5.18;51.22
8320;BME280;4197;42.130;24.746;2024-01-30T12:40:43;101564.97;;;5.29;50.87
8320;BME280;4197;42.130;24.746;2024-01-30T12:43:13;101577.31;;;5.14;50.57
8320;BME280;4197;42.130;24.746;2024-01-30T12:45:58;101570.06;;;5.15;50.39
8320;BME280;4197;42.130;24.746;2024-01-30T12:48:28;101567.38;;;5.05;50.85
8320;BME280;4197;42.130;24.746;2024-01-30T12:50:57;101570.06;;;5.05;50.93
8320;BME280;4197;42.130;24.746;2024-01-30T12:53:27;101566.50;;;4.89;50.64
8320;BME280;4197;42.130;24.746;2024-01-30T12:55:55;101570.16;;;4.67;51.31
8320;BME280;4197;42.130;24.746;2024-01-30T12:58:24;101569.72;;;4.86;51.38
8320;BME280;4197;42.130;24.746;2024-01-30T13:00:53;101568.59;;;4.72;51.23
8320;BME280;4197;42.130;24.746;2024-01-30T13:03:24;101558.94;;;4.81;51.34
8320;BME280;4197;42.130;24.746;2024-01-30T13:05:52;101564.38;;;4.96;52.02
8320;BME280;4197;42.130;24.746;2024-01-30T13:08:21;101562.53;;;5.02;52.41
8320;BME280;4197;42.130;24.746;2024-01-30T13:10:50;101561.22;;;5.25;51.97
8320;BME280;4197;42.130;24.746;2024-01-30T13:13:18;101553.69;;;5.22;52.68
8320;BME280;4197;42.130;24.746;2024-01-30T13:15:47;101561.78;;;5.42;51.95